McKittrick, California
Current Conditions -  °F | °C
As of 2:54 AM on Tuesday 21 Oct 2014 (Local Time) from KBFL Reporting Station
Overcast Overcast  
Wind Chill: 62°   Ceiling: 4400
Heat Index: 62°   Visibility: 10mi
Dew Point: 49°   Wind: 9mph
Humidity: 62%   Direction: 290°WNW
Pressure: 30.05"   Gusts: NA
Location:  35.31°N, 119.63°W
Report Text: KBFL 210954Z AUTO 29008KT 10SM BKN044 BKN055 OVC070 17/09 A3005 RMK AO2 SLP171 T01670094
Loading
Personal Weather Stations






























Interactive Weather Map
Tropical Storm Tracking
New forecast layout! Learn more

10-Day Weather Forecast

Advertisements
Track Severe Weather on mobile